Time;durP1;ratioP1;P1;durP2;ratioP2;P2;SDS_P1;SDS_P2;PMS_P1;PMS_P2;Temp;Humidity;BMP_temperature;BMP_pressure;BME280_temperature;BME280_humidity;BME280_pressure;Samples;Min_cycle;Max_cycle;Signal;HPM_P1;HPM_P2
2023/03/19 00:00:03;;;;;;;18.30;9.93;;;;;;;4.67;67.60;63415.72;5031342;28;20224;-54
2023/03/19 00:02:28;;;;;;;18.80;9.97;;;;;;;4.51;68.20;63393.34;5031074;28;20359;-54
2023/03/19 00:04:54;;;;;;;20.50;10.80;;;;;;;4.46;68.97;63392.91;5031635;28;20216;-57
2023/03/19 00:07:19;;;;;;;25.00;10.17;;;;;;;4.46;68.52;63392.34;5031135;28;20186;-54
2023/03/19 00:09:47;;;;;;;23.97;11.30;;;;;;;4.43;68.59;63387.13;5030627;28;20238;-55
2023/03/19 00:12:13;;;;;;;25.37;11.00;;;;;;;4.40;68.88;63386.38;5013312;28;20203;-55
2023/03/19 00:14:38;;;;;;;17.13;10.07;;;;;;;4.45;68.90;63391.25;5031379;28;20213;-54
2023/03/19 00:17:04;;;;;;;19.27;10.17;;;;;;;4.37;69.07;63382.53;5030961;28;20268;-54
2023/03/19 00:19:29;;;;;;;22.80;11.20;;;;;;;4.34;69.38;63379.28;5030568;28;20301;-58
2023/03/19 00:21:55;;;;;;;21.30;10.10;;;;;;;4.39;69.56;63385.28;5012959;28;20213;-57
2023/03/19 00:24:21;;;;;;;30.27;10.80;;;;;;;4.33;70.83;63378.75;5030638;28;20632;-56
2023/03/19 00:26:46;;;;;;;21.00;10.53;;;;;;;4.31;70.94;63376.03;5030766;28;20212;-57
2023/03/19 00:29:13;;;;;;;18.30;9.50;;;;;;;4.34;70.41;63377.34;5031065;28;20698;-54
2023/03/19 00:31:40;;;;;;;21.10;10.57;;;;;;;4.28;70.87;63375.81;5030792;28;20185;-55
2023/03/19 00:34:07;;;;;;;20.70;10.20;;;;;;;4.40;70.27;63386.38;5030780;28;20220;-58
2023/03/19 00:36:32;;;;;;;19.03;9.77;;;;;;;4.34;70.60;63379.28;5029278;28;20217;-54
2023/03/19 00:38:58;;;;;;;19.00;10.80;;;;;;;4.32;70.85;63377.66;5030701;28;20213;-54
2023/03/19 00:41:24;;;;;;;24.07;10.07;;;;;;;4.25;71.23;63370.03;5030554;28;20631;-54
2023/03/19 00:43:54;;;;;;;21.53;11.00;;;;;;;4.22;71.46;63367.31;5030638;28;20340;-56
2023/03/19 00:46:19;;;;;;;21.63;10.87;;;;;;;4.12;71.15;63358.94;5030662;28;20196;-56
2023/03/19 00:48:45;;;;;;;18.27;10.97;;;;;;;4.19;71.85;63363.53;5030569;28;20676;-55
2023/03/19 00:51:10;;;;;;;23.23;10.77;;;;;;;4.07;71.98;63352.97;5030508;28;20276;-59
2023/03/19 00:53:38;;;;;;;21.77;9.63;;;;;;;3.95;72.37;63333.00;5030451;28;20557;-60
2023/03/19 00:56:04;;;;;;;21.17;10.07;;;;;;;4.11;71.65;63355.38;5030292;28;20224;-60
2023/03/19 00:58:30;;;;;;;15.83;10.00;;;;;;;4.15;71.78;63354.19;5012448;28;20687;-60
2023/03/19 01:00:56;;;;;;;22.20;9.93;;;;;;;4.21;71.26;63366.25;5030342;28;20194;-59
2023/03/19 01:03:21;;;;;;;21.23;10.27;;;;;;;4.07;71.42;63350.47;5030267;28;20197;-60
2023/03/19 01:05:48;;;;;;;17.87;9.80;;;;;;;4.18;71.59;63359.94;5030200;28;20295;-60
2023/03/19 01:08:15;;;;;;;29.90;10.13;;;;;;;4.19;70.86;63369.06;5030109;28;20190;-59
2023/03/19 01:10:41;;;;;;;20.07;9.80;;;;;;;4.10;70.17;63353.75;5030060;28;20209;-59
2023/03/19 01:13:07;;;;;;;15.27;8.57;;;;;;;4.06;70.91;63349.41;5030029;28;20205;-59
2023/03/19 01:15:40;;;;;;;17.73;9.27;;;;;;;4.05;70.33;63348.31;5012338;28;20210;-60
2023/03/19 01:18:08;;;;;;;17.70;9.40;;;;;;;3.99;70.79;63344.81;5030095;28;20276;-58
2023/03/19 01:20:35;;;;;;;15.73;9.00;;;;;;;4.01;70.77;63343.94;5030229;28;20292;-59
2023/03/19 01:23:01;;;;;;;17.23;9.20;;;;;;;4.12;70.01;63355.91;5032723;28;20247;-59
2023/03/19 01:25:26;;;;;;;16.27;9.67;;;;;;;3.92;70.87;63334.19;5033538;28;20679;-59
2023/03/19 01:27:52;;;;;;;20.87;10.03;;;;;;;3.99;70.57;63341.78;5033624;28;20194;-59
2023/03/19 01:30:18;;;;;;;17.23;8.63;;;;;;;4.04;69.74;63347.22;5033606;28;20677;-59
2023/03/19 01:32:43;;;;;;;21.60;9.37;;;;;;;3.95;69.61;63337.44;5033405;28;20192;-60
2023/03/19 01:35:09;;;;;;;19.77;9.30;;;;;;;3.86;69.91;63327.63;5033116;28;20698;-58
2023/03/19 01:37:35;;;;;;;13.40;8.17;;;;;;;3.72;70.79;63312.41;5033195;28;20216;-59
2023/03/19 01:40:02;;;;;;;13.07;7.37;;;;;;;3.42;71.96;63280.91;5033668;28;20205;-59
2023/03/19 01:42:28;;;;;;;15.77;7.70;;;;;;;3.43;72.65;63281.47;5033298;28;20198;-57
2023/03/19 01:44:53;;;;;;;14.93;7.97;;;;;;;3.38;71.59;63273.53;5033436;28;20210;-61
2023/03/19 01:47:33;;;;;;;11.70;7.00;;;;;;;3.28;72.38;63265.72;5033426;28;20741;-60
2023/03/19 01:49:59;;;;;;;16.57;7.53;;;;;;;3.45;71.55;63283.09;5033269;28;20260;-59
2023/03/19 01:52:30;;;;;;;13.60;7.20;;;;;;;3.40;70.33;63278.19;5033021;28;20199;-59
2023/03/19 01:54:58;;;;;;;12.17;6.40;;;;;;;3.39;71.05;63275.16;5033115;28;20205;-55
2023/03/19 01:57:25;;;;;;;14.20;7.47;;;;;;;3.45;70.13;63280.59;5032919;28;20220;-54
2023/03/19 01:59:55;;;;;;;12.00;6.80;;;;;;;3.55;70.57;63293.97;5015153;28;20624;-53
2023/03/19 02:02:33;;;;;;;11.53;6.57;;;;;;;3.58;68.42;63294.72;5033040;28;20198;-53
2023/03/19 02:05:14;;;;;;;11.77;6.23;;;;;;;3.49;70.20;63289.94;5033252;28;20206;-53
2023/03/19 02:07:41;;;;;;;17.57;6.93;;;;;;;3.54;70.52;63292.88;5033127;28;20200;-54
2023/03/19 02:10:13;;;;;;;14.43;6.73;;;;;;;3.43;70.56;63279.50;5033024;28;20210;-57
2023/03/19 02:12:39;;;;;;;12.90;6.40;;;;;;;3.36;71.24;63276.88;5032742;28;20685;-55
2023/03/19 02:15:06;;;;;;;16.43;6.43;;;;;;;3.35;71.11;63273.31;5032752;28;20287;-54
2023/03/19 02:17:32;;;;;;;11.97;6.27;;;;;;;3.19;72.42;63253.44;5032765;28;20245;-55
2023/03/19 02:20:12;;;;;;;15.33;7.30;;;;;;;3.16;71.20;63252.69;5033027;28;20212;-54
2023/03/19 02:22:51;;;;;;;14.20;6.27;;;;;;;3.27;71.83;63264.63;5032615;28;20583;-55
2023/03/19 02:25:45;;;;;;;13.70;5.83;;;;;;;3.63;70.18;63305.13;5033074;28;20292;-55
2023/03/19 02:28:20;;;;;;;7.83;4.43;;;;;;;3.31;71.19;63268.44;5032724;28;20186;-55
2023/03/19 02:30:45;;;;;;;7.20;4.23;;;;;;;3.16;70.73;63257.66;5031242;28;20222;-54
2023/03/19 02:33:17;;;;;;;7.50;4.73;;;;;;;3.18;69.79;63252.38;5014509;28;20575;-55
2023/03/19 02:35:45;;;;;;;8.07;4.30;;;;;;;3.21;70.75;63258.09;5032342;28;20214;-54
2023/03/19 02:38:12;;;;;;;8.80;4.83;;;;;;;3.37;70.35;63274.94;5032268;28;20188;-54
2023/03/19 02:40:44;;;;;;;7.37;3.53;;;;;;;3.11;70.50;63247.25;5032346;28;20218;-54
2023/03/19 02:43:10;;;;;;;8.00;4.10;;;;;;;3.13;70.28;63243.91;5032540;28;20195;-54
2023/03/19 02:45:35;;;;;;;5.93;3.53;;;;;;;3.08;68.69;63244.00;5032228;28;20306;-54
2023/03/19 02:48:01;;;;;;;4.87;3.47;;;;;;;3.05;69.31;63240.72;5032162;28;20184;-54
2023/03/19 02:50:27;;;;;;;5.77;3.80;;;;;;;2.61;69.33;63192.94;5032574;28;20219;-54
2023/03/19 02:52:53;;;;;;;7.17;3.50;;;;;;;2.58;70.96;63187.22;5032187;28;20595;-55
2023/03/19 02:55:18;;;;;;;7.43;3.70;;;;;;;2.38;71.64;63166.03;5031955;28;20587;-54
2023/03/19 02:57:44;;;;;;;5.77;3.73;;;;;;;2.26;73.20;63155.50;5032015;28;20242;-53
2023/03/19 03:00:11;;;;;;;6.90;3.80;;;;;;;2.31;72.75;63157.91;5032074;28;20213;-53
2023/03/19 03:02:37;;;;;;;8.37;4.23;;;;;;;2.32;73.27;63161.50;5031950;28;20192;-56
2023/03/19 03:05:04;;;;;;;8.03;3.20;;;;;;;2.19;74.83;63145.44;5032356;28;20221;-59
2023/03/19 03:07:29;;;;;;;7.40;4.20;;;;;;;2.42;74.89;63172.34;5031011;28;20229;-59
2023/03/19 03:09:55;;;;;;;5.70;3.50;;;;;;;2.48;75.63;63181.88;5032360;28;20256;-59
2023/03/19 03:12:21;;;;;;;6.67;3.80;;;;;;;2.54;74.89;63185.88;5031897;28;20217;-59
2023/03/19 03:14:46;;;;;;;7.00;4.07;;;;;;;2.58;76.09;63187.22;5013899;28;20309;-58
2023/03/19 03:17:13;;;;;;;7.27;3.63;;;;;;;2.53;75.93;63184.25;5031898;28;20668;-58
2023/03/19 03:19:38;;;;;;;13.20;6.53;;;;;;;1.84;77.68;63109.41;5031819;28;20578;-58
2023/03/19 03:22:04;;;;;;;14.80;6.97;;;;;;;1.63;80.79;63087.19;5031893;28;20190;-58
2023/03/19 03:24:30;;;;;;;15.87;7.13;;;;;;;1.93;81.12;63121.66;5031165;28;20723;-57
2023/03/19 03:26:55;;;;;;;11.40;7.00;;;;;;;2.16;79.84;63144.13;5031741;28;20232;-57
2023/03/19 03:29:21;;;;;;;15.53;8.43;;;;;;;2.33;79.18;63160.63;5031734;28;20215;-60
2023/03/19 03:31:53;;;;;;;14.80;8.33;;;;;;;2.43;80.06;63171.47;5013804;28;20226;-58
2023/03/19 03:34:18;;;;;;;19.60;9.20;;;;;;;2.68;78.09;63200.56;5031781;28;20683;-54
2023/03/19 03:36:45;;;;;;;14.17;7.87;;;;;;;2.63;79.68;63195.13;5031413;28;20257;-55
2023/03/19 03:39:11;;;;;;;16.10;8.70;;;;;;;2.69;78.09;63201.09;5031826;28;20262;-54
2023/03/19 03:41:37;;;;;;;20.03;9.17;;;;;;;2.72;77.10;63204.34;5013688;28;20195;-54
2023/03/19 03:44:03;;;;;;;16.50;8.97;;;;;;;2.67;78.82;63196.97;5031100;28;20580;-54
2023/03/19 03:46:28;;;;;;;15.23;8.73;;;;;;;2.70;77.57;63205.22;5031235;28;20379;-54
2023/03/19 03:48:54;;;;;;;19.40;9.20;;;;;;;2.81;78.12;63214.13;5031450;28;20208;-54
2023/03/19 03:51:21;;;;;;;17.77;9.17;;;;;;;2.97;76.58;63229.53;5013530;28;20191;-59
2023/03/19 03:53:46;;;;;;;16.60;8.47;;;;;;;2.82;76.29;63215.22;5031428;28;20273;-54
2023/03/19 03:56:12;;;;;;;16.10;7.27;;;;;;;2.90;76.00;63224.44;5031476;28;20219;-55
2023/03/19 03:58:37;;;;;;;17.30;7.67;;;;;;;2.76;76.88;63206.75;5031330;28;20191;-54
2023/03/19 04:01:02;;;;;;;14.83;6.80;;;;;;;2.58;77.31;63189.16;5031080;28;20245;-54
2023/03/19 04:03:28;;;;;;;11.27;6.17;;;;;;;2.46;77.60;63176.69;5031079;28;20182;-59
2023/03/19 04:05:53;;;;;;;11.33;6.37;;;;;;;2.67;77.44;63199.47;5031305;28;20197;-58
2023/03/19 04:08:19;;;;;;;13.43;6.33;;;;;;;2.69;76.46;63198.63;5030845;28;20188;-59
2023/03/19 04:10:44;;;;;;;11.17;6.00;;;;;;;2.56;76.97;63187.53;5031088;28;20221;-59
2023/03/19 04:13:11;;;;;;;13.83;6.23;;;;;;;2.49;77.65;63180.47;5031069;28;20267;-58
2023/03/19 04:15:37;;;;;;;11.10;6.60;;;;;;;2.59;78.20;63190.25;5030884;28;20215;-56
2023/03/19 04:18:03;;;;;;;12.63;6.17;;;;;;;2.62;77.65;63193.50;5030883;28;20182;-58
2023/03/19 04:20:29;;;;;;;11.30;6.27;;;;;;;2.70;78.05;63205.22;5031025;28;20206;-58
2023/03/19 04:22:55;;;;;;;12.53;6.60;;;;;;;2.59;78.59;63190.78;5030677;28;20212;-57
2023/03/19 04:25:21;;;;;;;12.83;6.60;;;;;;;2.82;77.13;63215.22;5030717;28;20206;-56
2023/03/19 04:27:46;;;;;;;12.27;5.80;;;;;;;2.63;77.52;63194.59;5030908;28;20189;-56
2023/03/19 04:30:12;;;;;;;7.53;4.63;;;;;;;2.59;77.29;63193.25;5030669;28;20202;-57
2023/03/19 04:32:38;;;;;;;8.37;4.80;;;;;;;2.80;76.02;63210.56;5030556;28;20268;-57
2023/03/19 04:35:03;;;;;;;6.93;3.77;;;;;;;2.74;75.82;63209.56;5031013;28;20212;-56
2023/03/19 04:37:29;;;;;;;5.90;3.97;;;;;;;2.49;76.02;63182.41;5030595;28;20750;-58
2023/03/19 04:39:55;;;;;;;9.33;3.80;;;;;;;2.43;76.28;63173.97;5030797;28;20718;-54
2023/03/19 04:42:21;;;;;;;10.60;3.97;;;;;;;2.28;75.33;63157.66;5030396;28;20187;-57
2023/03/19 04:44:47;;;;;;;7.30;4.43;;;;;;;2.19;76.38;63147.91;5029243;28;20210;-55
2023/03/19 04:47:12;;;;;;;7.80;4.20;;;;;;;2.08;77.23;63135.44;5030280;28;20182;-53
2023/03/19 04:49:38;;;;;;;5.43;4.07;;;;;;;2.04;77.01;63131.63;5030441;28;20260;-54
2023/03/19 04:52:03;;;;;;;7.43;3.97;;;;;;;2.20;75.50;63150.94;5012523;28;20280;-54
2023/03/19 04:54:29;;;;;;;8.20;4.80;;;;;;;2.22;76.03;63150.63;5012505;28;20213;-55
2023/03/19 04:56:55;;;;;;;10.03;4.77;;;;;;;2.30;76.46;63156.84;5028871;28;20224;-54
2023/03/19 04:59:21;;;;;;;5.57;3.70;;;;;;;2.41;74.90;63171.78;5030535;28;20222;-53
2023/03/19 05:01:46;;;;;;;6.83;4.20;;;;;;;2.20;74.67;63145.97;5030061;28;20190;-57
2023/03/19 05:04:12;;;;;;;8.20;3.83;;;;;;;2.10;75.47;63137.63;5029328;28;20206;-54
2023/03/19 05:06:38;;;;;;;7.67;3.67;;;;;;;2.12;75.59;63142.81;5030099;28;20569;-55
2023/03/19 05:09:06;;;;;;;7.47;3.63;;;;;;;2.16;76.48;63144.66;5030235;28;20213;-54
2023/03/19 05:11:32;;;;;;;9.13;4.57;;;;;;;2.33;77.60;63163.09;5030334;28;20273;-55
2023/03/19 05:13:57;;;;;;;8.07;3.80;;;;;;;2.45;76.33;63176.13;5030018;28;20688;-55
2023/03/19 05:16:23;;;;;;;6.73;4.13;;;;;;;2.47;77.08;63180.78;5030088;28;20712;-54
2023/03/19 05:18:48;;;;;;;7.87;4.47;;;;;;;2.37;78.03;63164.41;5030051;28;20209;-55
2023/03/19 05:21:14;;;;;;;7.73;4.70;;;;;;;2.78;77.35;63211.41;5030131;28;20194;-55
2023/03/19 05:23:41;;;;;;;5.83;4.17;;;;;;;2.83;76.04;63216.84;5030079;28;20251;-54
2023/03/19 05:26:07;;;;;;;8.80;4.27;;;;;;;2.95;76.24;63229.34;5029698;28;20285;-54
2023/03/19 05:28:33;;;;;;;9.93;4.97;;;;;;;2.97;76.80;63229.53;5029748;28;20255;-54
2023/03/19 05:30:59;;;;;;;7.27;4.57;;;;;;;3.00;76.21;63235.31;5029830;28;20186;-55
2023/03/19 05:33:24;;;;;;;8.10;5.70;;;;;;;3.04;75.76;63239.66;5029659;28;20187;-54
2023/03/19 05:35:50;;;;;;;12.13;6.53;;;;;;;2.87;75.87;63218.16;5029558;28;20691;-54
2023/03/19 05:38:16;;;;;;;10.13;5.67;;;;;;;2.97;75.56;63231.50;5029542;28;20688;-54
2023/03/19 05:40:42;;;;;;;17.23;6.87;;;;;;;2.77;77.22;63212.81;5029531;28;20210;-53
2023/03/19 05:43:09;;;;;;;12.67;6.70;;;;;;;2.74;79.20;63206.53;5029602;28;20723;-57
2023/03/19 05:45:35;;;;;;;13.77;6.80;;;;;;;2.73;78.18;63205.44;5028473;28;20217;-57
2023/03/19 05:48:04;;;;;;;17.43;7.73;;;;;;;2.71;78.34;63205.75;5029767;28;20313;-56
2023/03/19 05:50:30;;;;;;;14.70;7.83;;;;;;;2.73;78.12;63205.44;5029760;28;20696;-56
2023/03/19 05:52:56;;;;;;;18.07;7.77;;;;;;;2.62;78.73;63193.50;5029526;28;20197;-57
2023/03/19 05:55:22;;;;;;;10.87;7.03;;;;;;;2.56;79.31;63187.53;5029605;28;20278;-57
2023/03/19 05:57:47;;;;;;;11.53;6.90;;;;;;;2.65;77.99;63196.75;5029410;28;20237;-56
2023/03/19 06:00:14;;;;;;;11.73;6.30;;;;;;;3.01;78.36;63236.38;5029361;28;20214;-58
2023/03/19 06:02:41;;;;;;;11.63;6.67;;;;;;;2.97;78.96;63231.50;5011666;28;20730;-54
2023/03/19 06:05:08;;;;;;;11.87;6.70;;;;;;;3.09;79.39;63245.06;5029772;28;20225;-53
2023/03/19 06:07:35;;;;;;;13.53;6.63;;;;;;;3.46;75.34;63287.22;5029983;28;20269;-57
2023/03/19 06:10:00;;;;;;;10.17;6.73;;;;;;;3.36;75.44;63274.41;5032900;28;20226;-57
2023/03/19 06:12:26;;;;;;;8.70;5.80;;;;;;;3.65;85.07;63304.81;5033124;28;20605;-54
2023/03/19 06:14:51;;;;;;;9.80;6.33;;;;;;;3.71;77.28;63311.34;5033102;28;20292;-55
2023/03/19 06:17:17;;;;;;;13.63;6.10;;;;;;;3.87;73.72;63329.28;5032620;28;20218;-55
2023/03/19 06:19:42;;;;;;;11.67;5.83;;;;;;;3.82;74.31;63323.28;5032746;28;20297;-56
2023/03/19 06:22:08;;;;;;;11.57;6.00;;;;;;;3.93;74.80;63335.81;5032877;28;20200;-59
2023/03/19 06:24:34;;;;;;;10.97;5.97;;;;;;;4.00;74.90;63342.88;5032919;28;20211;-60
2023/03/19 06:27:00;;;;;;;10.33;5.77;;;;;;;4.07;73.73;63350.47;5032514;28;20192;-58
2023/03/19 06:29:25;;;;;;;10.30;6.23;;;;;;;4.17;74.59;63361.34;5032474;28;20312;-55
2023/03/19 06:31:51;;;;;;;8.93;6.03;;;;;;;4.33;73.33;63375.69;5032523;28;20261;-54
2023/03/19 06:34:17;;;;;;;9.37;5.43;;;;;;;4.62;71.91;63407.81;5032577;28;20208;-54
2023/03/19 06:36:43;;;;;;;10.80;6.20;;;;;;;4.48;71.66;63394.53;5031014;28;20703;-61
2023/03/19 06:39:09;;;;;;;11.17;5.90;;;;;;;4.52;72.36;63396.38;5032315;28;20231;-54
2023/03/19 06:41:36;;;;;;;11.30;6.13;;;;;;;4.71;70.28;63419.53;5032290;28;20243;-54
2023/03/19 06:44:01;;;;;;;12.40;6.63;;;;;;;4.84;70.47;63431.19;5032228;28;20217;-54
2023/03/19 06:46:27;;;;;;;8.90;5.20;;;;;;;4.91;70.70;63441.84;5032277;28;20204;-56
2023/03/19 06:48:53;;;;;;;14.17;5.83;;;;;;;5.16;68.00;63468.50;5032330;28;20214;-57
2023/03/19 06:51:18;;;;;;;11.60;6.40;;;;;;;4.82;69.09;63431.50;5032386;28;20221;-55
2023/03/19 06:53:44;;;;;;;10.40;5.80;;;;;;;4.88;69.90;63436.09;5032049;28;20196;-55
2023/03/19 06:56:10;;;;;;;9.20;5.83;;;;;;;5.04;67.84;63453.50;5032138;28;20217;-56
2023/03/19 06:58:35;;;;;;;11.17;6.30;;;;;;;5.25;68.35;63478.31;5031785;28;20262;-54
2023/03/19 07:01:01;;;;;;;10.17;6.37;;;;;;;5.36;68.93;63487.22;5032105;28;20220;-56
2023/03/19 07:03:27;;;;;;;13.53;6.83;;;;;;;5.54;68.17;63506.81;5031938;28;20196;-54
2023/03/19 07:05:52;;;;;;;13.17;6.77;;;;;;;5.75;66.63;63532.19;5031984;28;20618;-54
2023/03/19 07:08:18;;;;;;;10.17;5.93;;;;;;;5.98;65.55;63554.75;5031854;28;20708;-55
2023/03/19 07:10:44;;;;;;;9.83;5.87;;;;;;;6.16;64.50;63574.38;5031774;28;20666;-57
2023/03/19 07:13:10;;;;;;;8.37;5.40;;;;;;;5.96;66.49;63552.59;5032059;28;20240;-57
2023/03/19 07:15:35;;;;;;;9.43;5.73;;;;;;;5.91;65.38;63547.69;5031579;28;20237;-58
2023/03/19 07:18:02;;;;;;;8.20;5.17;;;;;;;5.98;65.01;63556.75;5031559;28;20190;-57
2023/03/19 07:20:27;;;;;;;9.23;5.60;;;;;;;6.00;65.48;63561.94;5030533;28;20214;-59
2023/03/19 07:22:53;;;;;;;9.13;6.37;;;;;;;6.45;62.91;63610.44;5031671;28;20193;-54
2023/03/19 07:25:19;;;;;;;9.60;6.00;;;;;;;6.60;62.67;63621.78;5031791;28;20680;-55
2023/03/19 07:27:45;;;;;;;10.10;5.40;;;;;;;6.52;65.29;63613.63;5031656;28;20233;-55
2023/03/19 07:30:11;;;;;;;14.13;6.30;;;;;;;6.37;62.65;63599.78;5031768;28;20206;-55
2023/03/19 07:32:37;;;;;;;12.03;6.90;;;;;;;6.53;63.63;63616.66;5030398;28;20221;-55
2023/03/19 07:35:04;;;;;;;10.97;5.77;;;;;;;6.37;63.60;63601.72;5031962;28;20297;-55
2023/03/19 07:37:30;;;;;;;11.00;6.33;;;;;;;6.65;64.30;63627.78;5031528;28;20659;-61
2023/03/19 07:39:56;;;;;;;12.00;6.10;;;;;;;6.97;62.27;63661.59;5031786;28;20289;-60
2023/03/19 07:42:21;;;;;;;9.37;6.13;;;;;;;7.20;59.11;63689.19;5031469;28;20297;-61
2023/03/19 07:44:47;;;;;;;11.63;5.87;;;;;;;6.95;60.13;63659.94;5031233;28;20629;-60
2023/03/19 07:47:12;;;;;;;9.20;6.27;;;;;;;7.13;59.62;63684.06;5031773;28;20197;-60
2023/03/19 07:49:38;;;;;;;14.23;6.57;;;;;;;7.16;60.33;63682.84;5031213;28;20633;-60
2023/03/19 07:52:03;;;;;;;14.90;7.43;;;;;;;7.28;58.50;63697.91;5031418;28;20196;-61
2023/03/19 07:54:30;;;;;;;11.30;7.13;;;;;;;7.22;59.51;63688.84;5031119;28;20631;-59
2023/03/19 07:56:55;;;;;;;10.57;7.20;;;;;;;7.34;60.66;63704.44;5031182;28;20288;-60
2023/03/19 07:59:21;;;;;;;10.80;5.93;;;;;;;7.50;58.42;63721.91;5031516;28;20349;-59
2023/03/19 08:01:46;;;;;;;12.17;6.90;;;;;;;6.98;58.71;63665.19;5031488;28;20225;-55
2023/03/19 08:04:12;;;;;;;8.70;5.83;;;;;;;6.79;59.42;63640.53;5031128;28;20288;-56
2023/03/19 08:06:37;;;;;;;10.37;6.53;;;;;;;7.19;58.67;63685.59;5031102;28;20196;-56
2023/03/19 08:09:03;;;;;;;10.20;6.53;;;;;;;7.48;59.49;63715.25;5030988;28;20264;-56
2023/03/19 08:11:28;;;;;;;11.73;6.10;;;;;;;7.49;59.48;63721.34;5031020;28;20756;-55
2023/03/19 08:13:54;;;;;;;9.87;6.13;;;;;;;7.25;56.05;63692.13;5030830;28;20202;-56
2023/03/19 08:16:20;;;;;;;10.47;6.80;;;;;;;7.61;56.95;63733.91;5030898;28;20214;-59
2023/03/19 08:18:45;;;;;;;10.27;7.03;;;;;;;7.83;57.48;63755.41;5030804;28;20186;-60
2023/03/19 08:21:11;;;;;;;9.90;6.77;;;;;;;7.53;56.68;63723.22;5031043;28;20278;-59
2023/03/19 08:23:36;;;;;;;10.87;6.60;;;;;;;7.87;56.34;63759.22;5030881;28;20655;-59
2023/03/19 08:26:01;;;;;;;9.70;6.30;;;;;;;8.04;57.48;63780.84;5012895;28;20191;-59
2023/03/19 08:28:27;;;;;;;11.30;6.97;;;;;;;8.16;55.98;63788.91;5012859;28;20186;-59
2023/03/19 08:30:54;;;;;;;12.17;7.10;;;;;;;8.56;55.22;63832.09;5030140;28;20297;-59
2023/03/19 08:33:20;;;;;;;11.80;7.03;;;;;;;8.41;53.37;63818.75;5030574;28;20183;-59
2023/03/19 08:35:45;;;;;;;10.73;6.50;;;;;;;8.54;54.05;63832.41;5030489;28;20217;-60
2023/03/19 08:38:11;;;;;;;13.63;7.00;;;;;;;8.39;53.92;63819.09;5030088;28;20631;-59
2023/03/19 08:40:36;;;;;;;9.43;6.53;;;;;;;8.58;51.59;63836.78;5030256;28;20619;-60
2023/03/19 08:43:02;;;;;;;9.20;6.70;;;;;;;9.24;50.49;63908.34;5030536;28;20261;-56
2023/03/19 08:45:28;;;;;;;9.70;6.03;;;;;;;9.38;49.42;63923.66;5030780;28;20236;-55
2023/03/19 08:47:54;;;;;;;9.13;5.53;;;;;;;9.82;47.36;63973.72;5030339;28;20216;-56
2023/03/19 08:50:19;;;;;;;9.43;6.30;;;;;;;10.13;48.17;64005.72;5030215;28;20227;-59
2023/03/19 08:52:45;;;;;;;11.57;6.83;;;;;;;10.44;48.09;64036.00;5030630;28;20198;-56
2023/03/19 08:55:11;;;;;;;8.97;6.57;;;;;;;10.91;47.83;64090.53;5030624;28;20266;-55
2023/03/19 08:57:36;;;;;;;13.40;7.73;;;;;;;10.73;48.18;64067.75;5030336;28;20210;-57
2023/03/19 09:00:04;;;;;;;11.53;7.70;;;;;;;10.93;46.42;64092.16;5030442;28;20206;-55
2023/03/19 09:02:30;;;;;;;12.23;6.40;;;;;;;11.63;44.92;64166.34;5030049;28;20706;-57
2023/03/19 09:04:56;;;;;;;14.50;8.43;;;;;;;12.20;46.53;64230.78;5030499;28;20206;-55
2023/03/19 09:07:21;;;;;;;9.57;6.03;;;;;;;12.37;45.10;64248.88;5030273;28;20243;-58
2023/03/19 09:09:47;;;;;;;10.37;6.77;;;;;;;12.43;41.75;64255.47;5030718;28;20298;-58
2023/03/19 09:12:15;;;;;;;7.13;5.00;;;;;;;12.76;37.60;64288.56;5030067;28;20667;-58
2023/03/19 09:14:42;;;;;;;7.43;5.70;;;;;;;11.99;40.14;64204.69;5030126;28;20206;-55
2023/03/19 09:17:09;;;;;;;21.20;10.83;;;;;;;12.63;41.98;64277.94;5029886;28;20214;-58
2023/03/19 09:19:36;;;;;;;18.83;10.93;;;;;;;13.42;40.36;64366.63;5030308;28;20198;-63
2023/03/19 09:22:02;;;;;;;9.23;6.00;;;;;;;13.13;39.19;64331.72;5030197;28;20704;-57
2023/03/19 09:24:28;;;;;;;9.27;5.97;;;;;;;13.63;38.52;64386.06;5029937;28;20206;-59
2023/03/19 09:26:53;;;;;;;7.67;5.30;;;;;;;13.33;38.17;64351.69;5029862;28;20208;-58
2023/03/19 09:29:19;;;;;;;12.37;6.53;;;;;;;13.27;38.97;64344.56;5029700;28;20261;-55
2023/03/19 09:31:45;;;;;;;6.77;5.47;;;;;;;13.99;37.13;64426.13;5030067;28;20194;-56
2023/03/19 09:34:12;;;;;;;16.67;8.67;;;;;;;14.29;37.09;64456.03;5029689;28;20242;-56
2023/03/19 09:36:38;;;;;;;8.20;5.87;;;;;;;14.47;36.10;64470.72;5029646;28;20309;-57
2023/03/19 09:39:05;;;;;;;10.50;6.00;;;;;;;14.61;35.88;64493.72;5011901;28;20261;-56
2023/03/19 09:41:30;;;;;;;9.37;5.90;;;;;;;14.25;36.47;64451.59;5011942;28;20194;-58
2023/03/19 09:44:00;;;;;;;9.15;5.90;;;;;;;14.21;36.17;64447.78;5032111;28;20233;-57
2023/03/19 09:46:45;;;;;;;8.97;6.87;;;;;;;13.53;38.01;64375.63;5032867;28;20205;-57
2023/03/19 09:49:13;;;;;;;7.17;5.63;;;;;;;14.69;37.07;64499.97;5033295;28;20211;-61
2023/03/19 09:51:41;;;;;;;9.88;7.10;;;;;;;14.64;36.36;64497.03;5032864;28;20198;-59
2023/03/19 09:54:19;;;;;;;10.97;6.53;;;;;;;15.34;35.23;64570.34;5033008;28;20690;-60
2023/03/19 09:56:44;;;;;;;10.13;6.72;;;;;;;14.82;35.20;64514.28;5032905;28;20292;-62
2023/03/19 09:59:10;;;;;;;8.75;6.43;;;;;;;15.11;34.38;64546.16;5033405;28;20244;-58
2023/03/19 10:01:44;;;;;;;10.10;6.88;;;;;;;15.34;34.67;64570.34;5032857;28;20791;-64
2023/03/19 10:04:42;;;;;;;8.95;6.35;;;;;;;16.03;35.46;64648.25;5032864;28;20282;-61
2023/03/19 10:07:50;;;;;;;11.25;6.68;;;;;;;16.79;34.00;64729.94;5032990;28;20198;-55
2023/03/19 10:10:49;;;;;;;12.93;7.05;;;;;;;16.36;34.03;64687.13;4971720;28;20270;-56
2023/03/19 10:13:32;;;;;;;9.90;6.80;;;;;;;14.98;34.35;64533.84;5032677;28;20747;-57
2023/03/19 10:16:01;;;;;;;9.60;6.60;;;;;;;15.55;34.75;64593.47;5032718;28;20198;-58
2023/03/19 10:18:48;;;;;;;11.25;6.88;;;;;;;16.73;33.58;64725.34;5032737;28;20178;-55
2023/03/19 10:21:43;;;;;;;10.40;6.82;;;;;;;16.86;32.84;64737.13;5032633;28;20209;-58
2023/03/19 10:24:23;;;;;;;9.07;5.95;;;;;;;16.47;31.75;64696.69;5032773;28;20226;-61
2023/03/19 10:26:56;;;;;;;7.55;6.35;;;;;;;17.33;33.45;64788.88;5033066;28;20201;-60
2023/03/19 10:29:23;;;;;;;9.55;6.80;;;;;;;17.83;31.82;64846.00;5032394;28;20201;-60
2023/03/19 10:31:58;;;;;;;8.00;6.00;;;;;;;18.06;31.46;64868.28;5032537;28;20660;-61
2023/03/19 10:34:35;;;;;;;11.05;6.85;;;;;;;18.25;32.13;64889.22;5032718;28;20209;-61
2023/03/19 10:37:12;;;;;;;10.02;6.90;;;;;;;18.24;30.56;64888.13;5032387;28;20271;-61
2023/03/19 10:39:39;;;;;;;10.95;6.43;;;;;;;17.60;30.83;64818.09;5032817;28;20205;-61
2023/03/19 10:42:33;;;;;;;12.15;6.47;;;;;;;17.54;30.05;64811.50;5032304;28;20194;-62
2023/03/19 10:45:09;;;;;;;8.52;6.00;;;;;;;17.76;30.92;64835.19;5032597;28;20244;-57
2023/03/19 10:47:38;;;;;;;8.27;6.05;;;;;;;18.36;30.13;64904.44;5032184;28;20199;-57
2023/03/19 10:50:05;;;;;;;8.80;5.40;;;;;;;18.11;30.74;64876.88;5032506;28;20264;-57
2023/03/19 10:52:35;;;;;;;8.88;5.97;;;;;;;17.55;31.20;64813.13;5014292;28;20201;-56
2023/03/19 10:55:11;;;;;;;7.05;5.22;;;;;;;18.12;30.83;64874.88;5032124;28;20210;-56
2023/03/19 10:57:42;;;;;;;8.93;6.20;;;;;;;17.00;30.50;64752.53;5032131;28;20219;-57
2023/03/19 11:00:27;;;;;;;7.55;6.07;;;;;;;16.86;31.50;64737.13;5014548;28;20598;-57
2023/03/19 11:02:55;;;;;;;6.80;5.18;;;;;;;18.15;30.06;64875.63;5032224;28;20200;-58
2023/03/19 11:05:20;;;;;;;7.93;5.28;;;;;;;18.93;29.62;64964.25;5032074;28;20244;-57
2023/03/19 11:07:55;;;;;;;7.10;5.35;;;;;;;19.15;28.51;64987.97;5032072;28;20216;-61
2023/03/19 11:10:24;;;;;;;8.27;5.57;;;;;;;19.00;28.19;64971.41;5032215;28;20220;-62
2023/03/19 11:13:04;;;;;;;7.03;5.60;;;;;;;18.28;29.74;64893.06;5031929;28;20186;-56
2023/03/19 11:15:37;;;;;;;7.43;5.22;;;;;;;18.67;29.48;64935.56;5014275;28;20695;-57
2023/03/19 11:18:18;;;;;;;6.35;4.82;;;;;;;19.31;28.16;65005.63;5031648;28;20767;-58
2023/03/19 11:20:58;;;;;;;5.75;4.55;;;;;;;18.82;28.45;64954.13;5031636;28;20217;-55
2023/03/19 11:23:29;;;;;;;8.15;5.45;;;;;;;19.01;27.61;64975.06;5031957;28;20217;-56
2023/03/19 11:25:58;;;;;;;8.68;5.32;;;;;;;20.20;28.06;65102.84;5031699;28;20724;-56
2023/03/19 11:28:28;;;;;;;9.77;5.70;;;;;;;20.61;28.75;65143.59;5031835;28;20195;-56
2023/03/19 11:31:19;;;;;;;7.32;5.47;;;;;;;20.75;27.05;65164.19;5032032;28;20201;-56
2023/03/19 11:34:03;;;;;;;9.82;5.63;;;;;;;20.27;27.80;65110.59;5031866;28;20226;-56
2023/03/19 11:36:31;;;;;;;7.13;5.05;;;;;;;20.10;27.15;65090.31;5031479;28;20198;-55